Time;durP1;ratioP1;P1;durP2;ratioP2;P2;SDS_P1;SDS_P2;PMS_P1;PMS_P2;Temp;Humidity;BMP_temperature;BMP_pressure;BME280_temperature;BME280_humidity;BME280_pressure;Samples;Min_cycle;Max_cycle;Signal;HPM_P1;HPM_P2
2022/09/02 00:01:23;;;;;;;1.50;1.20;;;;;;;;;;5015735;28;20033;-42
2022/09/02 00:03:49;;;;;;;3.67;1.75;;;;;;;;;;4994910;28;20034;-43
2022/09/02 00:06:15;;;;;;;3.20;1.52;;;;;;;;;;5010050;28;20410;-42
2022/09/02 00:08:42;;;;;;;1.92;1.40;;;;;;;;;;4996957;28;20022;-52
2022/09/02 00:11:08;;;;;;;3.05;1.83;;;;;;;;;;5014850;28;20356;-42
2022/09/02 00:13:36;;;;;;;2.65;1.65;;;;;;;;;;4996517;28;20042;-43
2022/09/02 00:16:03;;;;;;;4.88;1.60;;;;;;;;;;4991041;28;20053;-42
2022/09/02 00:18:29;;;;;;;2.00;1.40;;;;;;;;;;5013398;28;20028;-42
2022/09/02 00:20:56;;;;;;;2.05;1.65;;;;;;;;;;5013717;28;20060;-42
2022/09/02 00:23:22;;;;;;;2.80;1.30;;;;;;;;;;4998344;28;20035;-43
2022/09/02 00:25:48;;;;;;;2.35;1.30;;;;;;;;;;4993418;28;20037;-41
2022/09/02 00:28:15;;;;;;;2.67;1.50;;;;;;;;;;4990271;28;20659;-44
2022/09/02 00:30:43;;;;;;;1.67;1.38;;;;;;;;;;4994375;28;20022;-51
2022/09/02 00:33:09;;;;;;;1.75;1.42;;;;;;;;;;4997794;28;20064;-42
2022/09/02 00:35:35;;;;;;;2.28;1.52;;;;;;;;;;5014691;28;20352;-42
2022/09/02 00:38:01;;;;;;;1.63;1.33;;;;;;;;;;5014568;28;20032;-42
2022/09/02 00:40:28;;;;;;;3.40;1.35;;;;;;;;;;5015224;28;20096;-42
2022/09/02 00:42:54;;;;;;;2.58;1.63;;;;;;;;;;5002585;28;20035;-42
2022/09/02 00:45:20;;;;;;;1.95;1.42;;;;;;;;;;4995516;28;20030;-42
2022/09/02 00:47:49;;;;;;;1.73;1.40;;;;;;;;;;4994555;28;20030;-43
2022/09/02 00:50:16;;;;;;;3.40;1.75;;;;;;;;;;4992393;28;20027;-42
2022/09/02 00:52:53;;;;;;;3.33;1.60;;;;;;;;;;5006858;28;20026;-52
2022/09/02 00:55:22;;;;;;;1.80;1.40;;;;;;;;;;5013891;28;20033;-42
2022/09/02 00:57:55;;;;;;;4.57;1.33;;;;;;;;;;5013887;28;20072;-42
2022/09/02 01:00:23;;;;;;;1.95;1.30;;;;;;;;;;4997378;28;20080;-42
2022/09/02 01:02:52;;;;;;;1.25;1.15;;;;;;;;;;4994129;28;20030;-42
2022/09/02 01:05:19;;;;;;;3.33;1.90;;;;;;;;;;5002676;28;20014;-42
2022/09/02 01:07:46;;;;;;;3.05;1.40;;;;;;;;;;4996493;28;20050;-45
2022/09/02 01:10:17;;;;;;;1.95;1.60;;;;;;;;;;4998510;28;20031;-42
2022/09/02 01:12:43;;;;;;;2.20;1.50;;;;;;;;;;4997190;28;20483;-52
2022/09/02 01:15:10;;;;;;;2.03;1.40;;;;;;;;;;5013948;28;20018;-42
2022/09/02 01:17:39;;;;;;;4.07;1.40;;;;;;;;;;5014380;28;20030;-42
2022/09/02 01:20:07;;;;;;;2.40;1.60;;;;;;;;;;4998691;28;20869;-42
2022/09/02 01:22:33;;;;;;;2.90;1.30;;;;;;;;;;4989570;28;20507;-42
2022/09/02 01:25:03;;;;;;;2.17;1.30;;;;;;;;;;4994005;28;20065;-42
2022/09/02 01:27:29;;;;;;;2.20;1.50;;;;;;;;;;4994794;28;20058;-42
2022/09/02 01:29:57;;;;;;;2.13;1.45;;;;;;;;;;4993115;28;20099;-42
2022/09/02 01:32:23;;;;;;;1.60;1.50;;;;;;;;;;4994760;28;20033;-42
2022/09/02 01:34:50;;;;;;;1.90;1.50;;;;;;;;;;4994014;28;20023;-42
2022/09/02 01:37:16;;;;;;;2.22;1.25;;;;;;;;;;4994622;28;20061;-42
2022/09/02 01:39:42;;;;;;;2.63;1.50;;;;;;;;;;4990100;28;20038;-52
2022/09/02 01:42:08;;;;;;;1.98;1.30;;;;;;;;;;4994161;28;20037;-42
2022/09/02 01:44:42;;;;;;;2.72;1.48;;;;;;;;;;4994338;28;20031;-42
2022/09/02 01:47:20;;;;;;;2.05;1.45;;;;;;;;;;4993808;28;20048;-42
2022/09/02 01:49:49;;;;;;;1.42;1.08;;;;;;;;;;4992993;28;20467;-51
2022/09/02 01:52:15;;;;;;;1.75;1.23;;;;;;;;;;4994171;28;20468;-42
2022/09/02 01:54:43;;;;;;;3.17;1.38;;;;;;;;;;4992134;28;20077;-44
2022/09/02 01:57:09;;;;;;;1.67;1.20;;;;;;;;;;4998100;28;20029;-42
2022/09/02 01:59:35;;;;;;;2.42;1.35;;;;;;;;;;4992492;28;20018;-42
2022/09/02 02:02:01;;;;;;;2.78;1.30;;;;;;;;;;4992568;28;20038;-42
2022/09/02 02:04:27;;;;;;;2.90;1.20;;;;;;;;;;4994567;28;20019;-42
2022/09/02 02:06:53;;;;;;;1.70;1.25;;;;;;;;;;5012403;28;20053;-43
2022/09/02 02:09:20;;;;;;;3.38;1.20;;;;;;;;;;5006466;28;20023;-43
2022/09/02 02:11:47;;;;;;;2.22;1.55;;;;;;;;;;4992401;28;20051;-50
2022/09/02 02:14:14;;;;;;;2.97;1.83;;;;;;;;;;4999995;28;20037;-42
2022/09/02 02:16:40;;;;;;;1.50;1.08;;;;;;;;;;5012216;28;20448;-43
2022/09/02 02:19:06;;;;;;;1.60;1.13;;;;;;;;;;5007552;28;20026;-42
2022/09/02 02:21:32;;;;;;;1.60;1.17;;;;;;;;;;4993545;28;20030;-43
2022/09/02 02:24:01;;;;;;;2.22;1.13;;;;;;;;;;4993003;28;20031;-42
2022/09/02 02:26:28;;;;;;;2.75;1.42;;;;;;;;;;4993779;28;20033;-46
2022/09/02 02:28:54;;;;;;;3.15;1.58;;;;;;;;;;4992161;28;20050;-45
2022/09/02 02:31:20;;;;;;;1.70;1.40;;;;;;;;;;4989248;28;20479;-46
2022/09/02 02:33:46;;;;;;;1.45;1.10;;;;;;;;;;5012810;28;20026;-52
2022/09/02 02:36:13;;;;;;;2.78;1.20;;;;;;;;;;5012799;28;20045;-45
2022/09/02 02:38:40;;;;;;;2.78;1.70;;;;;;;;;;5013173;28;20030;-45
2022/09/02 02:41:06;;;;;;;3.10;1.20;;;;;;;;;;4991809;28;20602;-45
2022/09/02 02:43:34;;;;;;;2.35;1.40;;;;;;;;;;4993470;28;20463;-45
2022/09/02 02:46:00;;;;;;;2.83;1.55;;;;;;;;;;4992263;28;20033;-45
2022/09/02 02:48:26;;;;;;;2.28;1.48;;;;;;;;;;4986471;28;20068;-43
2022/09/02 02:50:52;;;;;;;2.03;1.38;;;;;;;;;;4992111;28;20105;-45
2022/09/02 02:53:18;;;;;;;9.85;3.88;;;;;;;;;;4993307;28;20030;-48
2022/09/02 02:55:45;;;;;;;3.13;1.35;;;;;;;;;;4992392;28;20102;-49
2022/09/02 02:58:11;;;;;;;3.10;1.60;;;;;;;;;;4992516;28;20045;-47
2022/09/02 03:00:38;;;;;;;3.13;1.33;;;;;;;;;;4993278;28;20070;-46
2022/09/02 03:03:05;;;;;;;2.78;1.20;;;;;;;;;;4992343;28;20080;-43
2022/09/02 03:05:34;;;;;;;7.78;1.90;;;;;;;;;;4990230;28;20026;-47
2022/09/02 03:08:00;;;;;;;2.70;1.20;;;;;;;;;;5009640;28;20096;-46
2022/09/02 03:10:31;;;;;;;2.53;1.38;;;;;;;;;;5012563;28;20479;-47
2022/09/02 03:12:58;;;;;;;2.80;1.43;;;;;;;;;;5011892;28;20030;-45
2022/09/02 03:15:24;;;;;;;1.88;1.30;;;;;;;;;;4992933;28;20021;-42
2022/09/02 03:17:50;;;;;;;2.63;1.20;;;;;;;;;;4980842;28;20023;-51
2022/09/02 03:20:17;;;;;;;1.75;1.40;;;;;;;;;;4981006;28;20124;-45
2022/09/02 03:22:44;;;;;;;3.10;1.42;;;;;;;;;;4985927;28;20034;-44
2022/09/02 03:25:11;;;;;;;2.97;1.50;;;;;;;;;;4983034;28;20094;-45
2022/09/02 03:27:37;;;;;;;5.45;1.65;;;;;;;;;;4980474;28;20534;-42
2022/09/02 03:30:05;;;;;;;4.03;1.20;;;;;;;;;;4981676;28;20368;-44
2022/09/02 03:32:31;;;;;;;3.95;1.20;;;;;;;;;;4981774;28;20019;-44
2022/09/02 03:34:57;;;;;;;3.17;1.60;;;;;;;;;;4981407;28;20368;-46
2022/09/02 03:37:23;;;;;;;2.55;1.45;;;;;;;;;;4982774;28;20026;-43
2022/09/02 03:39:49;;;;;;;2.95;1.08;;;;;;;;;;4983731;28;20376;-52
2022/09/02 03:42:15;;;;;;;1.85;1.35;;;;;;;;;;4995693;28;20472;-43
2022/09/02 03:44:41;;;;;;;1.95;1.20;;;;;;;;;;4982765;28;20026;-44
2022/09/02 03:47:07;;;;;;;1.90;1.23;;;;;;;;;;5011324;28;20456;-43
2022/09/02 03:49:34;;;;;;;2.80;1.40;;;;;;;;;;5012200;28;20031;-47
2022/09/02 03:52:00;;;;;;;2.40;1.08;;;;;;;;;;5011438;28;20080;-42
2022/09/02 03:54:26;;;;;;;1.67;1.05;;;;;;;;;;5002429;28;20014;-43
2022/09/02 03:56:52;;;;;;;2.30;1.10;;;;;;;;;;5011624;28;20033;-53
2022/09/02 03:59:18;;;;;;;1.92;1.10;;;;;;;;;;5012036;28;20467;-44
2022/09/02 04:01:44;;;;;;;2.70;1.10;;;;;;;;;;5011761;28;20116;-43
2022/09/02 04:04:10;;;;;;;2.60;1.30;;;;;;;;;;5011305;28;20033;-44
2022/09/02 04:06:37;;;;;;;1.60;1.02;;;;;;;;;;5009520;28;20050;-46
2022/09/02 04:09:03;;;;;;;3.22;1.10;;;;;;;;;;5011243;28;20038;-45
2022/09/02 04:11:29;;;;;;;2.17;1.13;;;;;;;;;;4998245;28;20046;-45
2022/09/02 04:13:55;;;;;;;3.88;1.30;;;;;;;;;;5011093;28;20057;-44
2022/09/02 04:22:28;;;;;;;1.20;1.10;;;;;;;;;;4992298;28;20407;-46
2022/09/02 04:24:54;;;;;;;1.38;0.82;;;;;;;;;;4990694;28;20030;-47
2022/09/02 04:27:20;;;;;;;3.60;1.08;;;;;;;;;;4988217;28;20037;-45
2022/09/02 04:29:46;;;;;;;2.17;1.20;;;;;;;;;;5004732;28;20025;-43
2022/09/02 04:32:12;;;;;;;3.03;1.30;;;;;;;;;;5014625;28;20041;-43
2022/09/02 04:34:38;;;;;;;2.08;0.95;;;;;;;;;;4998545;28;20472;-42
2022/09/02 04:37:04;;;;;;;2.63;1.30;;;;;;;;;;4994789;28;20050;-43
2022/09/02 04:39:30;;;;;;;2.17;1.00;;;;;;;;;;4995777;28;20023;-42
2022/09/02 04:41:56;;;;;;;1.92;1.08;;;;;;;;;;4994851;28;20022;-43
2022/09/02 04:44:22;;;;;;;1.27;0.88;;;;;;;;;;4990641;28;20475;-42
2022/09/02 04:46:48;;;;;;;2.65;1.15;;;;;;;;;;5007870;28;20034;-43
2022/09/02 04:49:14;;;;;;;2.58;1.17;;;;;;;;;;5014247;28;20025;-45
2022/09/02 04:51:40;;;;;;;1.63;1.13;;;;;;;;;;5015084;28;20030;-45
2022/09/02 04:54:06;;;;;;;1.95;1.20;;;;;;;;;;5008033;28;20022;-42
2022/09/02 04:56:32;;;;;;;1.75;1.10;;;;;;;;;;4995418;28;20023;-43
2022/09/02 04:58:59;;;;;;;1.40;1.10;;;;;;;;;;4994750;28;20471;-45
2022/09/02 05:01:31;;;;;;;1.98;1.00;;;;;;;;;;4990095;28;20510;-42
2022/09/02 05:03:57;;;;;;;;;;;;;;;;;;4993807;28;20070;-45
2022/09/02 05:06:27;;;;;;;1.23;0.93;;;;;;;;;;5011273;28;19965;-42
2022/09/02 05:08:55;;;;;;;1.13;0.87;;;;;;;;;;5014436;28;20033;-52
2022/09/02 05:11:22;;;;;;;1.63;1.23;;;;;;;;;;4998815;28;20472;-48
2022/09/02 05:13:50;;;;;;;1.63;0.95;;;;;;;;;;4988971;28;20035;-48
2022/09/02 05:16:20;;;;;;;4.13;1.20;;;;;;;;;;4991362;28;20037;-52
2022/09/02 05:18:46;;;;;;;2.25;1.50;;;;;;;;;;4989142;28;20061;-45
2022/09/02 05:21:12;;;;;;;3.00;1.30;;;;;;;;;;4992297;28;20038;-42
2022/09/02 05:23:39;;;;;;;1.85;1.10;;;;;;;;;;4993495;28;20442;-45
2022/09/02 05:26:06;;;;;;;2.80;1.08;;;;;;;;;;4994030;28;20038;-42
2022/09/02 05:28:32;;;;;;;1.63;1.13;;;;;;;;;;4994772;28;20109;-42
2022/09/02 05:31:04;;;;;;;1.20;1.08;;;;;;;;;;4993224;28;20050;-44
2022/09/02 05:33:30;;;;;;;2.05;1.15;;;;;;;;;;4994750;28;20069;-42
2022/09/02 05:35:56;;;;;;;3.05;1.20;;;;;;;;;;4988558;28;20034;-51
2022/09/02 05:38:23;;;;;;;1.30;0.95;;;;;;;;;;4994467;28;20062;-45
2022/09/02 05:40:50;;;;;;;2.83;1.30;;;;;;;;;;4993447;28;20030;-42
2022/09/02 05:43:16;;;;;;;2.63;1.67;;;;;;;;;;4992907;28;20571;-45
2022/09/02 05:45:42;;;;;;;3.80;1.60;;;;;;;;;;4994313;28;20065;-43
2022/09/02 05:50:53;;;;;;;2.38;1.27;;;;;;;;;;4978161;28;20036;-48
2022/09/02 05:53:19;;;;;;;2.45;1.30;;;;;;;;;;4998747;28;20110;-42
2022/09/02 05:55:45;;;;;;;2.33;1.40;;;;;;;;;;4994019;28;20488;-42
2022/09/02 05:58:11;;;;;;;3.17;1.27;;;;;;;;;;4993472;28;20050;-45
2022/09/02 06:00:38;;;;;;;2.55;1.30;;;;;;;;;;4993553;28;20026;-45
2022/09/02 06:03:04;;;;;;;2.35;1.48;;;;;;;;;;4993160;28;20038;-44
2022/09/02 06:05:31;;;;;;;1.60;1.10;;;;;;;;;;5003077;28;20026;-42
2022/09/02 06:07:57;;;;;;;3.05;1.50;;;;;;;;;;5013190;28;20053;-50
2022/09/02 06:10:23;;;;;;;3.63;1.70;;;;;;;;;;4998813;28;20178;-42
2022/09/02 06:12:49;;;;;;;3.30;1.73;;;;;;;;;;4993621;28;20116;-42
2022/09/02 06:15:16;;;;;;;2.53;1.60;;;;;;;;;;4989455;28;20026;-42
2022/09/02 06:17:42;;;;;;;3.22;2.05;;;;;;;;;;4981479;28;20393;-43
2022/09/02 06:20:08;;;;;;;5.80;2.22;;;;;;;;;;4976185;28;20050;-43
2022/09/02 06:22:34;;;;;;;3.05;2.38;;;;;;;;;;4991314;28;20097;-43
2022/09/02 06:25:03;;;;;;;5.03;2.10;;;;;;;;;;4991670;28;20026;-51
2022/09/02 06:27:29;;;;;;;4.50;2.50;;;;;;;;;;4989685;28;20022;-42
2022/09/02 06:29:55;;;;;;;4.68;2.30;;;;;;;;;;4993690;28;20490;-42
2022/09/02 06:32:21;;;;;;;3.38;2.15;;;;;;;;;;4992017;28;20066;-42
2022/09/02 06:34:47;;;;;;;7.53;2.75;;;;;;;;;;4994043;28;20033;-44
2022/09/02 06:37:13;;;;;;;4.28;2.28;;;;;;;;;;4992296;28;20022;-42
2022/09/02 06:39:43;;;;;;;4.30;2.30;;;;;;;;;;4990400;28;20419;-45
2022/09/02 06:42:09;;;;;;;3.72;2.17;;;;;;;;;;4997016;28;20395;-44
2022/09/02 06:44:36;;;;;;;6.43;2.40;;;;;;;;;;5003431;28;20036;-45
2022/09/02 06:47:02;;;;;;;3.47;2.20;;;;;;;;;;5004636;28;20026;-47
2022/09/02 06:49:31;;;;;;;3.40;2.38;;;;;;;;;;4993505;28;20042;-44
2022/09/02 06:51:59;;;;;;;3.97;2.15;;;;;;;;;;4988018;28;20034;-47
2022/09/02 06:54:25;;;;;;;3.00;2.10;;;;;;;;;;4999712;28;20011;-45
2022/09/02 06:56:52;;;;;;;7.18;2.05;;;;;;;;;;5007127;28;20475;-43
2022/09/02 06:59:19;;;;;;;3.20;1.52;;;;;;;;;;5001489;28;20010;-43
2022/09/02 07:01:46;;;;;;;3.83;2.10;;;;;;;;;;5012715;28;20029;-43
2022/09/02 07:06:57;;;;;;;3.92;2.47;;;;;;;;;;4985564;28;20108;-43
2022/09/02 07:09:29;;;;;;;3.20;1.77;;;;;;;;;;5001137;28;20594;-43
2022/09/02 07:11:56;;;;;;;3.13;1.80;;;;;;;;;;5001861;28;20121;-42
2022/09/02 07:14:23;;;;;;;3.95;1.67;;;;;;;;;;4993449;28;20022;-44
2022/09/02 07:16:50;;;;;;;4.20;1.40;;;;;;;;;;4997694;28;20018;-44
2022/09/02 07:19:17;;;;;;;4.07;1.50;;;;;;;;;;5011168;28;20387;-43
2022/09/02 07:21:43;;;;;;;3.05;1.95;;;;;;;;;;4994579;28;20030;-42
2022/09/02 07:24:10;;;;;;;2.90;1.50;;;;;;;;;;4986680;28;20392;-43
2022/09/02 07:26:36;;;;;;;4.72;1.85;;;;;;;;;;4995520;28;20022;-43
2022/09/02 07:29:02;;;;;;;3.92;1.50;;;;;;;;;;5002855;28;20088;-52
2022/09/02 07:31:29;;;;;;;5.32;1.83;;;;;;;;;;5003057;28;20101;-44
2022/09/02 07:33:57;;;;;;;3.28;1.73;;;;;;;;;;4990854;28;20052;-44
2022/09/02 07:36:24;;;;;;;3.58;1.45;;;;;;;;;;5000618;28;20022;-43
2022/09/02 07:38:50;;;;;;;2.10;1.08;;;;;;;;;;5006274;28;20465;-47
2022/09/02 07:41:16;;;;;;;2.92;2.30;;;;;;;;;;4999099;28;20097;-46
2022/09/02 07:43:42;;;;;;;3.60;1.08;;;;;;;;;;4999060;28;20071;-46
2022/09/02 07:46:08;;;;;;;2.15;1.10;;;;;;;;;;5007705;28;20036;-43
2022/09/02 07:48:34;;;;;;;2.60;1.30;;;;;;;;;;4988099;28;20035;-47
2022/09/02 07:51:01;;;;;;;2.20;1.25;;;;;;;;;;4993961;28;20030;-50
2022/09/02 07:53:27;;;;;;;4.10;1.23;;;;;;;;;;5005604;28;20129;-43
2022/09/02 07:55:53;;;;;;;1.52;1.23;;;;;;;;;;4996496;28;20116;-44
2022/09/02 07:58:21;;;;;;;3.92;1.40;;;;;;;;;;5007477;28;20022;-43
2022/09/02 08:00:47;;;;;;;3.53;1.10;;;;;;;;;;4997007;28;20093;-44
2022/09/02 08:03:14;;;;;;;2.40;1.73;;;;;;;;;;5001901;28;20473;-46
2022/09/02 08:05:40;;;;;;;2.78;1.25;;;;;;;;;;4996261;28;20069;-46
2022/09/02 08:08:07;;;;;;;2.38;1.25;;;;;;;;;;5010911;28;20487;-42
2022/09/02 08:10:33;;;;;;;3.42;1.38;;;;;;;;;;4999812;28;20041;-42
2022/09/02 08:13:00;;;;;;;1.83;1.25;;;;;;;;;;5008537;28;20031;-51
2022/09/02 08:15:27;;;;;;;2.40;1.05;;;;;;;;;;5005333;28;20072;-42
2022/09/02 08:17:53;;;;;;;2.08;0.95;;;;;;;;;;5001549;28;20018;-42
2022/09/02 08:20:19;;;;;;;2.85;1.10;;;;;;;;;;4990930;28;20029;-45
2022/09/02 08:22:48;;;;;;;2.30;1.20;;;;;;;;;;4998466;28;20025;-42
2022/09/02 08:25:17;;;;;;;1.98;1.25;;;;;;;;;;5002332;28;20498;-43
2022/09/02 08:27:43;;;;;;;1.75;0.98;;;;;;;;;;4996216;28;20034;-43
2022/09/02 08:30:09;;;;;;;1.65;0.90;;;;;;;;;;5010144;28;20489;-44
2022/09/02 08:32:36;;;;;;;2.60;1.00;;;;;;;;;;4979422;28;20030;-44
2022/09/02 08:35:03;;;;;;;2.85;0.98;;;;;;;;;;4989098;28;20033;-52
2022/09/02 08:37:32;;;;;;;2.90;1.08;;;;;;;;;;5001778;28;20464;-44
2022/09/02 08:39:59;;;;;;;2.92;0.95;;;;;;;;;;4985287;28;20034;-43
2022/09/02 08:42:26;;;;;;;1.45;0.85;;;;;;;;;;5004413;28;20073;-45
2022/09/02 08:44:57;;;;;;;3.25;0.82;;;;;;;;;;4999890;28;20029;-45
2022/09/02 08:47:25;;;;;;;3.65;1.20;;;;;;;;;;5002984;28;20018;-42
2022/09/02 08:49:55;;;;;;;4.40;1.60;;;;;;;;;;4990151;28;20105;-44
2022/09/02 08:52:36;;;;;;;2.40;1.00;;;;;;;;;;4997598;28;20030;-42
2022/09/02 08:55:02;;;;;;;1.77;1.08;;;;;;;;;;4994588;28;20475;-52
2022/09/02 08:57:29;;;;;;;1.50;0.88;;;;;;;;;;5003307;28;20030;-43
2022/09/02 08:59:57;;;;;;;2.65;0.75;;;;;;;;;;5009025;28;20045;-44
2022/09/02 09:02:26;;;;;;;3.97;1.52;;;;;;;;;;4996677;28;20041;-43
2022/09/02 09:05:16;;;;;;;3.22;1.25;;;;;;;;;;5012550;28;20025;-46
2022/09/02 09:07:51;;;;;;;1.00;0.82;;;;;;;;;;5002227;28;20061;-47
2022/09/02 09:10:40;;;;;;;1.60;0.85;;;;;;;;;;5009975;28;20026;-45
2022/09/02 09:13:25;;;;;;;1.67;0.70;;;;;;;;;;4986926;28;20034;-42
2022/09/02 09:16:10;;;;;;;1.50;0.88;;;;;;;;;;5001135;28;20042;-43
2022/09/02 09:18:36;;;;;;;4.35;1.00;;;;;;;;;;4995501;28;20022;-45
2022/09/02 09:21:03;;;;;;;2.53;0.90;;;;;;;;;;5001361;28;20041;-50
2022/09/02 09:23:32;;;;;;;1.13;0.60;;;;;;;;;;5002927;28;20100;-42
2022/09/02 09:26:05;;;;;;;1.42;0.80;;;;;;;;;;5009090;28;20022;-43
2022/09/02 09:28:31;;;;;;;2.08;1.60;;;;;;;;;;4997990;28;20360;-42
2022/09/02 09:31:00;;;;;;;1.98;0.95;;;;;;;;;;5014365;28;20018;-44
2022/09/02 09:33:26;;;;;;;1.20;0.90;;;;;;;;;;5003181;28;20026;-42
2022/09/02 09:35:53;;;;;;;2.08;0.98;;;;;;;;;;4995777;28;20052;-43
2022/09/02 09:38:39;;;;;;;2.38;1.00;;;;;;;;;;4993350;28;20033;-42
2022/09/02 09:41:14;;;;;;;2.15;1.05;;;;;;;;;;5005772;28;20033;-49
2022/09/02 09:43:40;;;;;;;1.00;0.70;;;;;;;;;;4974939;28;20126;-42
2022/09/02 09:46:35;;;;;;;2.10;0.63;;;;;;;;;;5004818;28;20104;-51
2022/09/02 09:49:01;;;;;;;1.30;0.70;;;;;;;;;;4977180;28;20042;-42
2022/09/02 09:51:27;;;;;;;1.60;0.70;;;;;;;;;;5002383;28;20037;-44
2022/09/02 09:54:13;;;;;;;2.88;0.80;;;;;;;;;;4984484;28;20100;-46
2022/09/02 09:56:39;;;;;;;1.20;0.80;;;;;;;;;;4974056;28;20488;-43
2022/09/02 09:59:07;;;;;;;3.20;0.80;;;;;;;;;;4988862;28;20050;-53
2022/09/02 10:01:33;;;;;;;0.95;0.80;;;;;;;;;;4980589;28;20038;-44
2022/09/02 10:04:02;;;;;;;1.10;0.80;;;;;;;;;;4993751;28;20034;-42
2022/09/02 10:06:31;;;;;;;1.85;0.95;;;;;;;;;;4994709;28;20058;-43
2022/09/02 10:09:01;;;;;;;1.33;0.90;;;;;;;;;;5000009;28;20112;-44
2022/09/02 10:11:31;;;;;;;1.75;0.85;;;;;;;;;;5002105;28;20088;-43
2022/09/02 10:14:08;;;;;;;1.52;0.80;;;;;;;;;;4991524;28;20479;-43
2022/09/02 10:16:41;;;;;;;6.28;1.13;;;;;;;;;;5009426;28;20030;-43
2022/09/02 10:19:09;;;;;;;4.80;1.17;;;;;;;;;;4993283;28;20430;-52
2022/09/02 10:21:41;;;;;;;5.95;1.60;;;;;;;;;;5004346;28;20022;-42
2022/09/02 10:24:10;;;;;;;7.05;1.58;;;;;;;;;;5006217;28;20380;-50
2022/09/02 10:26:52;;;;;;;6.43;2.35;;;;;;;;;;4980646;28;20085;-45
2022/09/02 10:29:18;;;;;;;;;;;;;;;;;;5002862;28;20018;-44
2022/09/02 10:31:50;;;;;;;5.45;1.83;;;;;;;;;;4993198;28;19906;-45
2022/09/02 10:34:27;;;;;;;5.47;2.40;;;;;;;;;;5008395;28;20029;-42
2022/09/02 10:37:05;;;;;;;3.67;1.90;;;;;;;;;;4998821;28;20030;-42
2022/09/02 10:39:49;;;;;;;3.35;1.40;;;;;;;;;;5001474;28;20026;-43
2022/09/02 10:42:15;;;;;;;2.95;1.20;;;;;;;;;;5007976;28;20431;-44
2022/09/02 10:44:44;;;;;;;2.60;1.33;;;;;;;;;;4997275;28;20030;-43
2022/09/02 10:47:28;;;;;;;3.95;2.38;;;;;;;;;;5003495;28;20018;-44
2022/09/02 10:49:58;;;;;;;2.80;1.58;;;;;;;;;;5007035;28;20038;-42
2022/09/02 10:52:39;;;;;;;3.60;1.50;;;;;;;;;;4995406;28;20513;-42
2022/09/02 10:55:05;;;;;;;2.05;1.10;;;;;;;;;;5004305;28;20037;-52
2022/09/02 10:57:40;;;;;;;3.50;1.10;;;;;;;;;;5002674;28;20400;-42
2022/09/02 11:00:13;;;;;;;2.50;0.98;;;;;;;;;;4995956;28;20465;-53
2022/09/02 11:02:43;;;;;;;1.90;0.98;;;;;;;;;;4980990;28;20088;-42
2022/09/02 11:05:14;;;;;;;3.33;1.27;;;;;;;;;;5009801;28;20105;-46
2022/09/02 11:07:43;;;;;;;1.90;1.02;;;;;;;;;;4999659;28;20129;-42
2022/09/02 11:10:16;;;;;;;3.42;0.98;;;;;;;;;;5007850;28;20367;-51
2022/09/02 11:12:47;;;;;;;2.38;0.98;;;;;;;;;;4981491;28;20403;-43
2022/09/02 11:15:16;;;;;;;1.80;1.10;;;;;;;;;;4995463;28;20479;-47
2022/09/02 11:17:51;;;;;;;1.25;0.80;;;;;;;;;;5004586;28;20030;-41
2022/09/02 11:20:17;;;;;;;1.40;0.80;;;;;;;;;;4994858;28;20030;-44
2022/09/02 11:22:49;;;;;;;2.15;0.77;;;;;;;;;;5004514;28;20033;-41
2022/09/02 11:25:19;;;;;;;1.00;0.68;;;;;;;;;;5002324;28;20026;-44
2022/09/02 11:27:57;;;;;;;3.13;0.73;;;;;;;;;;5005044;28;20036;-45
2022/09/02 11:30:24;;;;;;;3.00;0.80;;;;;;;;;;4994430;28;20069;-43
2022/09/02 11:33:01;;;;;;;1.73;0.70;;;;;;;;;;5006156;28;20517;-44
2022/09/02 11:35:38;;;;;;;1.30;0.80;;;;;;;;;;4993318;28;20058;-44
2022/09/02 11:38:16;;;;;;;1.27;0.60;;;;;;;;;;5007465;28;20108;-43
2022/09/02 11:40:51;;;;;;;2.35;0.80;;;;;;;;;;4980506;28;20022;-44
2022/09/02 11:43:30;;;;;;;0.68;0.60;;;;;;;;;;5001759;28;20105;-44
2022/09/02 11:46:13;;;;;;;1.45;0.82;;;;;;;;;;5006551;28;20030;-43
2022/09/02 11:48:41;;;;;;;2.05;0.80;;;;;;;;;;4989350;28;20022;-44
2022/09/02 11:51:25;;;;;;;4.03;0.73;;;;;;;;;;5003630;28;20349;-53
2022/09/02 11:53:52;;;;;;;1.83;0.80;;;;;;;;;;4999705;28;20029;-43
2022/09/02 11:56:20;;;;;;;0.98;0.70;;;;;;;;;;4994751;28;20096;-43
2022/09/02 11:58:48;;;;;;;1.50;0.80;;;;;;;;;;5001500;28;20428;-43
2022/09/02 12:01:14;;;;;;;1.48;1.20;;;;;;;;;;5002208;28;20045;-43
2022/09/02 12:03:45;;;;;;;2.05;0.75;;;;;;;;;;5004154;28;20025;-43
2022/09/02 12:06:15;;;;;;;;;;;;;;;;;;4994811;28;20237;-44
2022/09/02 12:08:43;;;;;;;1.73;0.52;;;;;;;;;;5007286;28;20118;-43
2022/09/02 12:11:11;;;;;;;1.45;0.77;;;;;;;;;;4999348;28;20025;-53
2022/09/02 12:13:37;;;;;;;1.55;0.85;;;;;;;;;;4999586;28;20034;-43
2022/09/02 12:16:15;;;;;;;0.90;0.70;;;;;;;;;;5002393;28;20102;-43
2022/09/02 12:18:44;;;;;;;2.25;1.10;;;;;;;;;;4981730;28;20109;-44
2022/09/02 12:21:15;;;;;;;1.25;0.82;;;;;;;;;;5002515;28;20049;-46
2022/09/02 12:23:53;;;;;;;2.05;0.52;;;;;;;;;;5003962;28;20417;-44
2022/09/02 12:26:20;;;;;;;0.82;0.70;;;;;;;;;;4994159;28;20030;-43
2022/09/02 12:28:47;;;;;;;0.80;0.60;;;;;;;;;;5006533;28;20023;-43
2022/09/02 12:31:14;;;;;;;0.73;0.52;;;;;;;;;;4999064;28;20034;-43
2022/09/02 12:33:40;;;;;;;0.70;0.57;;;;;;;;;;4998769;28;20023;-43
2022/09/02 12:36:09;;;;;;;0.70;0.50;;;;;;;;;;5007167;28;20472;-50
2022/09/02 12:38:39;;;;;;;1.35;0.70;;;;;;;;;;4979968;28;20022;-44
2022/09/02 12:41:05;;;;;;;0.73;0.60;;;;;;;;;;4999960;28;20046;-45
2022/09/02 12:43:35;;;;;;;1.13;0.60;;;;;;;;;;5001902;28;20030;-43
2022/09/02 12:46:16;;;;;;;3.28;0.80;;;;;;;;;;4996712;28;20117;-43
2022/09/02 12:48:48;;;;;;;1.27;0.98;;;;;;;;;;4984223;28;20037;-46
2022/09/02 12:51:33;;;;;;;1.33;0.70;;;;;;;;;;4989992;28;20038;-44
2022/09/02 12:54:00;;;;;;;1.90;0.60;;;;;;;;;;4987775;28;20035;-43
2022/09/02 12:56:26;;;;;;;2.35;0.93;;;;;;;;;;4998763;28;20384;-43
2022/09/02 12:58:55;;;;;;;2.92;1.00;;;;;;;;;;5008539;28;20027;-44
2022/09/02 13:01:33;;;;;;;1.88;0.70;;;;;;;;;;4992110;28;20030;-43
2022/09/02 13:04:03;;;;;;;1.80;0.80;;;;;;;;;;5009572;28;20026;-43
2022/09/02 13:06:35;;;;;;;1.35;0.75;;;;;;;;;;5008415;28;20014;-44
2022/09/02 13:09:04;;;;;;;0.90;0.73;;;;;;;;;;5014574;28;20054;-43
2022/09/02 13:11:43;;;;;;;0.75;0.50;;;;;;;;;;5013715;28;20014;-43
2022/09/02 13:14:08;;;;;;;1.75;1.10;;;;;;;;;;5012284;28;20084;-52
2022/09/02 13:16:34;;;;;;;1.50;1.05;;;;;;;;;;5008029;28;20018;-45
2022/09/02 13:19:00;;;;;;;1.42;0.60;;;;;;;;;;5011717;28;20049;-44
2022/09/02 13:21:29;;;;;;;2.13;0.80;;;;;;;;;;5003466;28;20014;-44
2022/09/02 13:24:01;;;;;;;1.15;0.77;;;;;;;;;;5008589;28;20036;-43
2022/09/02 13:26:30;;;;;;;0.60;0.60;;;;;;;;;;5011689;28;20482;-44
2022/09/02 13:28:59;;;;;;;1.25;0.80;;;;;;;;;;5000200;28;20450;-45
2022/09/02 13:31:26;;;;;;;1.20;0.63;;;;;;;;;;5001708;28;20022;-44
2022/09/02 13:34:11;;;;;;;2.20;0.80;;;;;;;;;;4994618;28;20026;-43
2022/09/02 13:36:40;;;;;;;0.95;0.65;;;;;;;;;;4997390;28;20105;-44
2022/09/02 13:39:12;;;;;;;1.95;0.95;;;;;;;;;;5006855;28;20026;-43
2022/09/02 13:41:38;;;;;;;2.13;0.70;;;;;;;;;;5005853;28;20030;-43
2022/09/02 13:44:06;;;;;;;1.38;0.90;;;;;;;;;;5013995;28;20030;-43
2022/09/02 13:46:32;;;;;;;2.85;1.00;;;;;;;;;;4996458;28;20096;-44
2022/09/02 13:48:58;;;;;;;1.13;0.70;;;;;;;;;;5007701;28;20040;-44
2022/09/02 13:51:24;;;;;;;2.17;0.80;;;;;;;;;;5002988;28;20049;-43
2022/09/02 13:53:50;;;;;;;1.58;1.00;;;;;;;;;;5000407;28;20424;-43
2022/09/02 13:56:23;;;;;;;1.52;0.85;;;;;;;;;;4993352;28;20037;-43
2022/09/02 13:58:55;;;;;;;2.65;0.93;;;;;;;;;;4980046;28;20371;-43
2022/09/02 14:01:23;;;;;;;3.20;0.82;;;;;;;;;;4995014;28;20015;-44
2022/09/02 14:03:50;;;;;;;2.10;0.73;;;;;;;;;;4999398;28;20038;-43
2022/09/02 14:06:17;;;;;;;1.65;0.70;;;;;;;;;;5008107;28;20073;-44
2022/09/02 14:08:44;;;;;;;1.45;0.80;;;;;;;;;;4997604;28;20109;-46
2022/09/02 14:11:14;;;;;;;1.02;0.80;;;;;;;;;;5005650;28;20022;-44
2022/09/02 14:13:43;;;;;;;1.58;0.77;;;;;;;;;;4993441;28;20125;-44
2022/09/02 14:16:35;;;;;;;2.80;0.90;;;;;;;;;;5009293;28;20503;-45
2022/09/02 14:19:05;;;;;;;1.15;0.73;;;;;;;;;;4985505;28;20813;-46
2022/09/02 14:21:31;;;;;;;1.00;0.73;;;;;;;;;;5011021;28;20025;-43
2022/09/02 14:23:57;;;;;;;1.20;0.80;;;;;;;;;;4998654;28;20073;-46
2022/09/02 14:26:27;;;;;;;0.98;0.73;;;;;;;;;;5008895;28;20033;-44
2022/09/02 14:28:54;;;;;;;2.67;0.90;;;;;;;;;;4999215;28;20025;-44
2022/09/02 14:31:29;;;;;;;0.90;0.70;;;;;;;;;;5002732;28;20102;-47
2022/09/02 14:33:55;;;;;;;0.63;0.60;;;;;;;;;;5007553;28;20530;-43
2022/09/02 14:36:24;;;;;;;1.98;0.80;;;;;;;;;;4995816;28;20026;-43
2022/09/02 14:38:53;;;;;;;1.17;0.70;;;;;;;;;;5003375;28;20526;-45
2022/09/02 14:41:22;;;;;;;3.03;1.00;;;;;;;;;;5002690;28;20041;-43
2022/09/02 14:43:49;;;;;;;0.60;0.60;;;;;;;;;;4997012;28;20479;-44
2022/09/02 14:46:26;;;;;;;2.58;1.13;;;;;;;;;;5001787;28;20080;-53
2022/09/02 14:48:56;;;;;;;0.88;0.70;;;;;;;;;;5007140;28;20038;-44
2022/09/02 14:51:22;;;;;;;1.27;0.70;;;;;;;;;;5001845;28;20026;-43
2022/09/02 14:53:48;;;;;;;1.10;0.80;;;;;;;;;;4999145;28;20523;-45
2022/09/02 14:56:14;;;;;;;1.80;0.70;;;;;;;;;;4994604;28;20109;-53
2022/09/02 14:58:40;;;;;;;1.05;0.93;;;;;;;;;;5008460;28;20073;-44
2022/09/02 15:01:07;;;;;;;2.10;1.00;;;;;;;;;;4992537;28;20014;-43
2022/09/02 15:03:37;;;;;;;1.23;1.02;;;;;;;;;;5003379;28;20029;-45